Time;durP1;ratioP1;P1;durP2;ratioP2;P2;SDS_P1;SDS_P2;PMS_P1;PMS_P2;Temp;Humidity;BMP_temperature;BMP_pressure;BME280_temperature;BME280_humidity;BME280_pressure;Samples;Min_cycle;Max_cycle;Signal;HPM_P1;HPM_P2
2023/07/22 00:00:15;;;;;;;13.35;7.60;;;;;;;13.00;82.24;101179.06;5067583;28;20016;-84
2023/07/22 00:02:43;;;;;;;12.90;8.50;;;;;;;13.09;81.81;101185.09;5071910;28;20032;-83
2023/07/22 00:05:10;;;;;;;12.68;7.82;;;;;;;13.15;81.58;101184.28;5057691;28;20025;-83
2023/07/22 00:07:36;;;;;;;11.82;7.60;;;;;;;13.24;81.38;101181.41;5061895;28;20040;-83
2023/07/22 00:10:01;;;;;;;12.65;8.00;;;;;;;13.19;81.30;101185.53;5074201;28;20025;-84
2023/07/22 00:12:26;;;;;;;12.80;8.15;;;;;;;13.13;81.56;101188.25;5075210;28;20037;-84
2023/07/22 00:14:53;;;;;;;11.55;7.63;;;;;;;13.13;82.01;101180.94;5067699;28;20083;-84
2023/07/22 00:17:18;;;;;;;10.25;7.65;;;;;;;13.11;82.04;101177.63;5070546;28;20033;-83
2023/07/22 00:19:44;;;;;;;11.63;7.93;;;;;;;13.21;81.29;101179.09;5058692;28;20094;-84
2023/07/22 00:22:09;;;;;;;12.77;8.20;;;;;;;13.13;81.83;101178.25;5072614;28;20032;-84
2023/07/22 00:24:35;;;;;;;11.38;7.45;;;;;;;13.11;81.67;101177.63;5068994;28;20024;-84
2023/07/22 00:27:00;;;;;;;10.50;7.80;;;;;;;13.15;81.77;101178.03;5055112;28;20047;-85
2023/07/22 00:29:26;;;;;;;12.77;8.32;;;;;;;13.10;81.85;101178.66;5060061;28;20033;-85
2023/07/22 00:31:51;;;;;;;10.95;7.93;;;;;;;13.13;81.82;101180.94;5067722;28;20468;-85
2023/07/22 00:34:19;;;;;;;11.73;7.55;;;;;;;13.10;82.17;101172.44;5066957;28;20035;-85
2023/07/22 00:36:46;;;;;;;11.50;8.05;;;;;;;13.01;82.21;101182.59;5065677;28;20020;-84
2023/07/22 00:39:13;;;;;;;11.30;7.47;;;;;;;12.88;83.26;101165.31;5066867;28;20396;-85
2023/07/22 00:41:40;;;;;;;13.20;7.93;;;;;;;12.81;83.45;101172.56;5052241;28;20061;-84
2023/07/22 00:44:06;;;;;;;10.52;7.47;;;;;;;12.92;83.36;101170.31;5064345;28;20031;-85
2023/07/22 00:46:31;;;;;;;11.15;7.47;;;;;;;12.93;82.78;101164.72;5067736;28;20029;-85
2023/07/22 00:48:56;;;;;;;10.88;8.40;;;;;;;12.98;82.92;101164.91;5065764;28;20086;-84
2023/07/22 00:51:22;;;;;;;11.10;7.57;;;;;;;13.04;82.29;101172.19;5059401;28;20044;-84
2023/07/22 00:53:47;;;;;;;11.43;7.75;;;;;;;13.07;82.34;101172.84;5051142;28;20027;-84
2023/07/22 00:56:13;;;;;;;13.23;8.38;;;;;;;13.02;82.39;101170.75;5065555;28;20120;-84
2023/07/22 00:58:38;;;;;;;13.27;8.63;;;;;;;13.08;81.92;101166.41;5047293;28;20043;-85
2023/07/22 01:01:04;;;;;;;12.73;8.43;;;;;;;13.13;82.02;101178.25;5044229;28;20092;-84
2023/07/22 01:03:29;;;;;;;13.25;8.52;;;;;;;13.08;82.55;101169.91;5068602;28;20028;-84
2023/07/22 01:05:55;;;;;;;12.63;8.48;;;;;;;13.12;82.59;101165.75;5051132;28;20571;-85
2023/07/22 01:08:20;;;;;;;14.73;8.82;;;;;;;13.14;82.78;101163.69;5069989;28;20020;-85
2023/07/22 01:10:46;;;;;;;14.30;8.48;;;;;;;13.17;82.59;101162.44;5067644;28;20609;-85
2023/07/22 01:13:11;;;;;;;14.07;8.73;;;;;;;13.17;82.69;101155.19;5067136;28;20071;-84
2023/07/22 01:15:37;;;;;;;14.52;8.82;;;;;;;13.21;82.50;101154.78;5075087;28;20033;-85
2023/07/22 01:18:03;;;;;;;13.45;8.95;;;;;;;13.15;82.93;101149.13;5089142;28;20040;-85
2023/07/22 01:20:29;;;;;;;11.48;8.57;;;;;;;13.09;83.30;101146.44;5040628;28;20036;-85
2023/07/22 01:22:55;;;;;;;13.70;9.00;;;;;;;13.19;83.56;101147.69;5057062;28;20025;-85
2023/07/22 01:25:23;;;;;;;13.45;9.18;;;;;;;13.21;82.74;101144.78;5053248;28;20029;-85
2023/07/22 01:27:53;;;;;;;13.65;9.45;;;;;;;13.20;83.06;101143.09;5049835;28;20028;-85
2023/07/22 01:30:19;;;;;;;14.70;9.73;;;;;;;13.21;83.28;101138.56;5048010;28;20032;-85
2023/07/22 01:32:45;;;;;;;13.98;9.55;;;;;;;13.22;83.36;101140.22;5064270;28;20044;-85
2023/07/22 01:35:10;;;;;;;15.82;10.10;;;;;;;13.22;83.24;101145.63;5050836;28;20104;-84
2023/07/22 01:37:35;;;;;;;13.77;8.68;;;;;;;13.17;82.93;101136.25;5065435;28;20029;-85
2023/07/22 01:40:08;;;;;;;17.83;9.95;;;;;;;13.08;83.63;101140.19;5066132;28;20033;-85
2023/07/22 01:42:36;;;;;;;14.20;9.82;;;;;;;13.00;84.14;101143.09;5066591;28;20464;-85
2023/07/22 01:45:01;;;;;;;13.65;9.75;;;;;;;12.92;84.29;101140.59;5067209;28;20028;-85
2023/07/22 01:47:27;;;;;;;14.60;10.05;;;;;;;12.95;84.21;101145.56;5066132;28;20052;-84
2023/07/22 01:49:52;;;;;;;12.90;8.75;;;;;;;12.87;83.93;101144.75;5057912;28;20534;-85
2023/07/22 01:52:17;;;;;;;16.70;9.93;;;;;;;12.62;85.58;101141.75;5061596;28;20024;-85
2023/07/22 01:54:43;;;;;;;15.23;9.55;;;;;;;12.65;85.71;101143.25;5067637;28;20083;-85
2023/07/22 01:57:08;;;;;;;14.50;9.20;;;;;;;12.77;85.41;101132.69;5064017;28;20036;-85
2023/07/22 01:59:34;;;;;;;14.45;9.75;;;;;;;12.77;85.40;101133.50;5067113;28;20040;-85
2023/07/22 02:01:59;;;;;;;14.30;9.45;;;;;;;12.75;85.33;101135.56;5070202;28;20050;-84
2023/07/22 02:04:24;;;;;;;15.98;9.98;;;;;;;12.77;85.48;101132.69;5080910;28;20017;-85
2023/07/22 02:06:51;;;;;;;14.60;9.73;;;;;;;12.67;85.50;101138.47;5071667;28;20058;-85
2023/07/22 02:09:17;;;;;;;16.25;9.73;;;;;;;12.74;85.69;101133.91;5075032;28;20108;-85
2023/07/22 02:11:42;;;;;;;14.40;9.27;;;;;;;12.74;85.04;101142.00;5065614;28;20392;-85
2023/07/22 02:14:07;;;;;;;16.02;10.30;;;;;;;12.74;84.93;101136.59;5060919;28;20048;-85
2023/07/22 02:16:36;;;;;;;15.35;9.95;;;;;;;12.78;84.78;101145.16;5060810;28;20515;-85
2023/07/22 02:19:02;;;;;;;14.95;10.52;;;;;;;12.80;85.01;101145.75;5061623;28;20037;-85
2023/07/22 02:21:28;;;;;;;18.02;10.05;;;;;;;12.82;84.59;101135.56;5070655;28;20063;-85
2023/07/22 02:23:53;;;;;;;15.45;10.35;;;;;;;12.71;85.30;101135.16;5068833;28;20051;-85
2023/07/22 02:26:19;;;;;;;14.68;10.48;;;;;;;12.54;86.64;101137.38;5064013;28;20027;-85
2023/07/22 02:28:44;;;;;;;17.73;11.25;;;;;;;12.50;86.74;101132.59;5070383;28;20032;-84
2023/07/22 02:31:10;;;;;;;16.48;10.80;;;;;;;12.49;86.59;101139.03;5064891;28;20032;-85
2023/07/22 02:33:36;;;;;;;17.35;10.82;;;;;;;12.54;86.87;101137.38;5064968;28;20112;-85
2023/07/22 02:36:01;;;;;;;15.73;10.13;;;;;;;12.67;86.07;101138.47;5059615;28;20029;-85
2023/07/22 02:38:27;;;;;;;15.93;10.63;;;;;;;12.76;85.17;101137.22;5064051;28;20087;-85
2023/07/22 02:40:52;;;;;;;15.32;10.35;;;;;;;12.75;85.45;101132.84;5066117;28;20035;-85
2023/07/22 02:43:17;;;;;;;16.35;11.00;;;;;;;12.80;85.23;101135.78;5069063;28;20027;-85
2023/07/22 02:45:44;;;;;;;16.20;10.43;;;;;;;12.82;85.28;101133.72;5065129;28;20017;-84
2023/07/22 02:48:09;;;;;;;15.95;10.60;;;;;;;12.68;85.12;101129.31;5066379;28;20488;-84
2023/07/22 02:50:34;;;;;;;16.52;10.93;;;;;;;12.58;86.22;101133.25;5058974;28;20024;-85
2023/07/22 02:53:01;;;;;;;15.98;9.80;;;;;;;12.66;85.72;101136.81;5066130;28;20050;-85
2023/07/22 02:55:26;;;;;;;15.20;10.98;;;;;;;12.70;85.70;101128.06;5058889;28;20652;-85
2023/07/22 02:57:52;;;;;;;15.95;10.38;;;;;;;12.69;85.25;101131.81;5060125;28;20046;-85
2023/07/22 03:00:24;;;;;;;14.80;10.27;;;;;;;12.58;86.02;101135.94;5067365;28;20024;-85
2023/07/22 03:02:52;;;;;;;17.83;11.02;;;;;;;12.56;85.81;101132.59;5065981;28;20111;-85
2023/07/22 03:05:17;;;;;;;15.73;10.50;;;;;;;12.52;86.13;101134.06;5069003;28;20032;-85
2023/07/22 03:07:42;;;;;;;15.00;10.32;;;;;;;12.51;86.22;101137.81;5062587;28;20036;-85
2023/07/22 03:10:08;;;;;;;17.73;11.23;;;;;;;12.40;86.25;101138.38;5068401;28;20044;-84
2023/07/22 03:12:34;;;;;;;17.63;10.95;;;;;;;12.34;86.82;101129.22;5070550;28;20032;-84
2023/07/22 03:15:00;;;;;;;17.98;11.43;;;;;;;12.22;86.89;101133.53;5057566;28;20116;-85
2023/07/22 03:17:25;;;;;;;16.67;10.38;;;;;;;12.20;87.35;101133.72;5069380;28;20032;-85
2023/07/22 03:19:51;;;;;;;15.43;10.55;;;;;;;12.20;87.60;101133.72;5065363;28;20098;-85
2023/07/22 03:22:16;;;;;;;16.77;10.98;;;;;;;12.20;87.33;101133.72;5059629;28;20021;-84
2023/07/22 03:24:45;;;;;;;14.75;10.32;;;;;;;12.23;86.77;101133.31;5070346;28;20032;-85
2023/07/22 03:27:11;;;;;;;14.20;10.25;;;;;;;12.22;86.89;101131.66;5062418;28;20430;-85
2023/07/22 03:29:37;;;;;;;18.17;10.95;;;;;;;12.24;86.61;101135.00;5068421;28;20020;-85
2023/07/22 03:32:03;;;;;;;15.93;10.73;;;;;;;12.19;86.08;101131.22;5068110;28;20033;-85
2023/07/22 03:34:29;;;;;;;15.45;10.98;;;;;;;12.17;86.54;101139.53;5067839;28;20035;-85
2023/07/22 03:36:55;;;;;;;17.25;10.60;;;;;;;12.08;87.12;101146.13;5062706;28;20029;-85
2023/07/22 03:39:21;;;;;;;16.90;10.90;;;;;;;12.14;86.91;101148.03;5062525;28;20036;-86
2023/07/22 03:41:46;;;;;;;19.02;11.45;;;;;;;12.13;86.98;101149.06;5062540;28;20488;-84
2023/07/22 03:44:12;;;;;;;16.25;11.07;;;;;;;12.10;86.75;101146.75;5060112;28;20028;-85
2023/07/22 03:46:37;;;;;;;17.92;11.63;;;;;;;12.05;86.77;101147.38;5063910;28;20024;-85
2023/07/22 03:49:03;;;;;;;16.98;10.98;;;;;;;12.01;87.40;101148.78;5070471;28;20048;-85
2023/07/22 03:51:28;;;;;;;16.13;10.85;;;;;;;12.03;87.12;101145.88;5065974;28;20032;-85
2023/07/22 03:53:57;;;;;;;19.08;12.13;;;;;;;12.03;87.19;101153.97;5065733;28;20078;-85
2023/07/22 03:56:23;;;;;;;17.85;11.35;;;;;;;12.05;86.93;101149.22;5060188;28;20438;-84
2023/07/22 03:58:49;;;;;;;16.55;11.23;;;;;;;12.13;86.53;101149.88;5066291;28;20036;-84
2023/07/22 04:01:15;;;;;;;16.85;11.43;;;;;;;12.15;86.54;101149.69;5070258;28;20119;-84
2023/07/22 04:03:40;;;;;;;16.80;11.30;;;;;;;12.20;85.96;101149.91;5049945;28;20807;-84
2023/07/22 04:06:05;;;;;;;17.80;11.20;;;;;;;12.16;86.05;101151.38;5062827;28;20034;-84
2023/07/22 04:08:31;;;;;;;17.63;11.25;;;;;;;12.20;85.72;101146.41;5087312;22;20055;-85
2023/07/22 04:10:56;;;;;;;16.88;11.35;;;;;;;12.24;85.47;101140.38;5069596;28;20447;-84
2023/07/22 04:13:23;;;;;;;16.23;10.57;;;;;;;12.25;85.55;101139.34;5078928;28;20020;-85
2023/07/22 04:15:48;;;;;;;16.25;10.75;;;;;;;12.25;85.29;101138.53;5074581;28;20016;-85
2023/07/22 04:18:17;;;;;;;19.30;11.60;;;;;;;12.31;85.80;101145.00;5077416;28;20070;-85
2023/07/22 04:20:42;;;;;;;15.55;11.25;;;;;;;12.31;86.04;101134.19;5072651;28;20021;-85
2023/07/22 04:23:10;;;;;;;18.48;11.30;;;;;;;12.35;85.03;101138.97;5102875;28;20055;-85
2023/07/22 04:25:39;;;;;;;17.35;10.93;;;;;;;12.43;84.62;101137.97;5086253;28;20114;-85
2023/07/22 04:28:05;;;;;;;17.15;11.13;;;;;;;12.46;84.45;101137.56;5085503;28;20389;-85
2023/07/22 04:30:30;;;;;;;17.00;10.48;;;;;;;12.45;84.50;101133.19;5077416;28;20032;-85
2023/07/22 04:32:56;;;;;;;15.65;10.65;;;;;;;12.53;84.30;101146.50;5079201;28;20040;-84
2023/07/22 04:35:21;;;;;;;16.45;11.27;;;;;;;12.55;84.39;101146.31;5108595;28;20088;-85
2023/07/22 04:37:47;;;;;;;15.15;11.13;;;;;;;12.55;84.33;101141.75;5098860;28;20033;-85
2023/07/22 04:40:16;;;;;;;17.52;11.00;;;;;;;12.57;84.29;101142.38;5086850;28;20017;-85
2023/07/22 04:42:42;;;;;;;19.30;11.75;;;;;;;12.67;84.23;101138.47;5077657;28;20503;-84
2023/07/22 04:45:11;;;;;;;17.50;11.38;;;;;;;12.70;84.21;101148.88;5075624;28;20070;-84
2023/07/22 04:47:38;;;;;;;16.52;11.35;;;;;;;12.66;83.94;101148.41;5078000;28;20383;-85
2023/07/22 04:50:09;;;;;;;18.65;11.52;;;;;;;12.69;84.39;101149.91;5082433;28;20465;-84
2023/07/22 04:52:35;;;;;;;19.27;11.80;;;;;;;12.80;83.25;101143.91;5067327;28;20036;-84
2023/07/22 04:55:00;;;;;;;17.42;11.43;;;;;;;12.86;82.86;101151.19;5073311;28;20111;-86
2023/07/22 04:57:28;;;;;;;18.25;11.68;;;;;;;12.94;83.31;101154.72;5082581;28;20031;-84
2023/07/22 04:59:54;;;;;;;17.55;12.00;;;;;;;13.09;82.45;101152.66;5070762;28;20033;-84
2023/07/22 05:02:19;;;;;;;16.80;10.90;;;;;;;13.19;81.96;101153.09;5072939;28;20027;-85
2023/07/22 05:04:45;;;;;;;17.80;11.63;;;;;;;13.25;81.52;101154.13;5075577;28;20042;-84
2023/07/22 05:07:10;;;;;;;18.25;11.98;;;;;;;13.39;80.63;101163.09;5093796;28;20036;-84
2023/07/22 05:09:36;;;;;;;18.17;10.88;;;;;;;13.54;79.88;101165.59;5092418;28;20044;-85
2023/07/22 05:12:02;;;;;;;16.35;11.30;;;;;;;13.67;78.82;101170.16;5073949;28;20104;-83
2023/07/22 05:14:27;;;;;;;17.55;11.10;;;;;;;13.79;78.63;101163.06;5084597;28;20119;-85
2023/07/22 05:16:52;;;;;;;20.00;11.98;;;;;;;13.85;78.39;101172.25;5079680;28;20042;-85
2023/07/22 05:19:20;;;;;;;16.95;11.13;;;;;;;13.93;78.06;101173.91;5071993;28;20025;-85
2023/07/22 05:21:46;;;;;;;17.00;11.73;;;;;;;13.98;77.65;101165.94;5071575;28;20090;-85
2023/07/22 05:24:11;;;;;;;18.90;11.73;;;;;;;14.10;77.62;101169.69;5083187;28;20061;-83
2023/07/22 05:26:38;;;;;;;18.50;11.70;;;;;;;14.46;76.02;101172.88;5080428;28;20020;-84
2023/07/22 05:29:03;;;;;;;17.52;12.00;;;;;;;14.80;75.00;101170.03;5070588;28;20094;-83
2023/07/22 05:31:31;;;;;;;16.60;11.20;;;;;;;15.14;73.69;101167.94;5069319;28;20358;-83
2023/07/22 05:33:56;;;;;;;16.65;11.27;;;;;;;15.41;71.76;101165.84;5051661;28;20044;-82
2023/07/22 05:36:21;;;;;;;16.83;11.45;;;;;;;15.91;70.30;101166.88;5073267;28;20069;-83
2023/07/22 05:38:47;;;;;;;20.58;11.32;;;;;;;15.95;69.74;101161.81;5068962;28;20040;-85
2023/07/22 05:41:12;;;;;;;19.80;11.60;;;;;;;15.90;69.74;101167.94;5067053;28;20124;-88
2023/07/22 05:43:38;;;;;;;16.92;11.70;;;;;;;15.80;70.27;101171.13;5052788;28;20021;-88
2023/07/22 05:46:03;;;;;;;18.88;11.55;;;;;;;15.47;71.76;101169.56;5072566;28;20107;-80
2023/07/22 05:48:28;;;;;;;16.85;11.88;;;;;;;15.48;71.51;101168.50;5068503;28;20724;-82
2023/07/22 05:50:54;;;;;;;16.38;11.57;;;;;;;15.42;71.90;101175.66;5056219;22;20046;-86
2023/07/22 05:53:19;;;;;;;17.42;12.18;;;;;;;15.31;72.65;101182.63;5034271;28;20022;-85
2023/07/22 05:55:45;;;;;;;22.02;11.77;;;;;;;14.96;73.89;101174.94;5033417;28;20029;-84
2023/07/22 05:58:17;;;;;;;18.58;12.23;;;;;;;14.83;75.56;101173.13;5031197;28;20763;-85
2023/07/22 06:00:43;;;;;;;17.73;11.18;;;;;;;15.18;74.40;101171.03;5031821;28;20044;-83
2023/07/22 06:03:09;;;;;;;20.48;12.25;;;;;;;15.44;73.17;101167.28;5026132;28;20029;-86
2023/07/22 06:05:34;;;;;;;16.60;11.55;;;;;;;15.57;72.81;101169.88;5013429;28;20017;-85
2023/07/22 06:08:00;;;;;;;18.20;11.85;;;;;;;15.73;72.66;101175.78;5028122;28;20021;-84
2023/07/22 06:10:25;;;;;;;16.20;11.57;;;;;;;16.49;70.65;101179.16;5027158;28;20026;-84
2023/07/22 06:12:51;;;;;;;17.38;12.27;;;;;;;17.75;65.60;101168.47;5021046;28;20068;-82
2023/07/22 06:15:20;;;;;;;17.92;12.27;;;;;;;18.67;62.49;101173.41;5022687;28;20026;-86
2023/07/22 06:17:46;;;;;;;20.23;12.35;;;;;;;19.53;58.26;101181.47;5029676;28;20033;-85
2023/07/22 06:20:11;;;;;;;21.20;12.68;;;;;;;19.57;58.34;101179.06;5025452;28;20112;-85
2023/07/22 06:22:37;;;;;;;19.42;12.20;;;;;;;20.24;57.51;101166.34;5040838;28;20029;-85
2023/07/22 06:25:02;;;;;;;17.60;12.15;;;;;;;20.98;54.42;101172.41;5033732;28;20082;-85
2023/07/22 06:27:28;;;;;;;17.58;12.68;;;;;;;21.12;53.40;101171.97;5028305;28;20103;-85
2023/07/22 06:29:53;;;;;;;17.33;12.75;;;;;;;21.12;52.97;101170.03;5015598;28;20096;-85
2023/07/22 06:32:19;;;;;;;17.55;12.90;;;;;;;19.93;56.02;101162.41;5016391;28;20528;-85
2023/07/22 06:34:44;;;;;;;17.15;12.23;;;;;;;19.42;57.51;101173.38;5032725;28;20025;-85
2023/07/22 06:37:12;;;;;;;18.50;13.18;;;;;;;19.33;58.29;101164.78;5034959;28;20543;-86
2023/07/22 06:39:38;;;;;;;19.65;12.80;;;;;;;19.70;58.06;101169.72;5019965;28;20041;-85
2023/07/22 06:42:04;;;;;;;17.83;12.00;;;;;;;20.27;56.78;101157.66;5035115;28;20022;-85
2023/07/22 06:44:31;;;;;;;16.38;12.80;;;;;;;20.83;55.30;101162.13;5028213;28;20017;-85
2023/07/22 06:46:56;;;;;;;18.98;12.57;;;;;;;21.86;52.46;101167.59;5032388;28;20405;-85
2023/07/22 06:49:22;;;;;;;18.05;12.32;;;;;;;22.65;50.05;101166.81;5028032;28;20025;-85
2023/07/22 06:51:47;;;;;;;15.65;11.73;;;;;;;23.41;48.64;101164.44;5025328;28;20108;-86
2023/07/22 06:54:13;;;;;;;17.98;12.40;;;;;;;24.42;45.16;101160.88;5024256;28;20028;-86
2023/07/22 06:56:38;;;;;;;16.45;12.10;;;;;;;24.86;43.89;101159.25;5025181;28;20029;-86
2023/07/22 06:59:03;;;;;;;17.17;12.65;;;;;;;23.41;46.42;101154.28;5034078;28;20037;-86
2023/07/22 07:01:32;;;;;;;19.38;12.75;;;;;;;21.99;50.63;101157.25;5031090;28;20166;-86
2023/07/22 07:03:57;;;;;;;18.02;12.73;;;;;;;21.51;53.18;101164.31;5023877;28;20036;-85
2023/07/22 07:06:23;;;;;;;19.40;12.80;;;;;;;20.28;56.73;101159.31;5031621;28;20029;-85
2023/07/22 07:08:48;;;;;;;22.05;14.05;;;;;;;20.18;58.10;101153.72;5032744;28;20095;-85
2023/07/22 07:11:14;;;;;;;20.10;13.95;;;;;;;20.32;56.79;101145.94;5033098;28;20040;-85
2023/07/22 07:13:40;;;;;;;18.55;12.45;;;;;;;20.21;57.59;101153.19;5029430;28;20374;-85
2023/07/22 07:16:27;;;;;;;25.55;14.07;;;;;;;18.84;62.44;101155.19;5028096;28;20045;-85
2023/07/22 07:18:52;;;;;;;21.40;13.88;;;;;;;18.94;63.09;101155.41;5025681;28;20082;-84
2023/07/22 07:21:18;;;;;;;23.40;14.27;;;;;;;18.98;62.80;101163.09;5024876;28;20030;-85
2023/07/22 07:23:44;;;;;;;22.10;14.25;;;;;;;19.38;62.55;101159.41;5032784;28;20319;-84
2023/07/22 07:26:09;;;;;;;20.45;13.48;;;;;;;19.89;60.83;101162.06;5032262;28;20025;-84
2023/07/22 07:28:35;;;;;;;20.52;13.20;;;;;;;22.47;52.71;101160.75;4998478;28;20040;-85
2023/07/22 07:31:05;;;;;;;20.88;13.90;;;;;;;23.09;49.90;101166.34;5032351;28;20021;-84
2023/07/22 07:33:30;;;;;;;18.55;12.80;;;;;;;22.28;52.37;101163.13;5031763;28;20481;-84
2023/07/22 07:35:56;;;;;;;17.67;11.98;;;;;;;24.04;48.42;101155.78;5031650;28;20080;-84
2023/07/22 07:38:21;;;;;;;18.50;13.00;;;;;;;24.59;46.50;101157.72;5033112;28;20037;-84
2023/07/22 07:41:00;;;;;;;18.05;13.30;;;;;;;24.56;46.21;101161.03;5023956;28;20394;-84
2023/07/22 07:43:25;;;;;;;18.38;12.60;;;;;;;24.73;45.01;101155.22;5031431;28;20483;-84
2023/07/22 07:45:58;;;;;;;17.30;12.27;;;;;;;23.79;47.56;101153.13;5031586;28;20109;-84
2023/07/22 07:48:23;;;;;;;19.15;12.82;;;;;;;23.21;49.51;101152.34;4999905;28;20041;-84
2023/07/22 07:50:48;;;;;;;18.05;12.95;;;;;;;22.04;52.40;101144.38;5023987;28;20478;-84
2023/07/22 07:53:17;;;;;;;19.35;12.80;;;;;;;21.73;53.16;101149.72;5019019;28;20036;-84
2023/07/22 07:55:42;;;;;;;19.20;13.13;;;;;;;21.69;53.06;101134.06;5033683;28;20002;-84
2023/07/22 07:58:07;;;;;;;17.77;12.10;;;;;;;21.83;52.83;101132.50;5058609;28;20028;-84
2023/07/22 08:00:33;;;;;;;20.92;12.43;;;;;;;21.82;52.68;101136.34;5033099;28;20457;-83
2023/07/22 08:02:58;;;;;;;19.48;11.55;;;;;;;21.81;53.42;101140.16;5025518;28;20026;-82
2023/07/22 08:05:27;;;;;;;19.73;12.77;;;;;;;21.83;54.12;101143.47;5027555;28;20029;-84
2023/07/22 08:07:55;;;;;;;18.20;12.43;;;;;;;22.60;52.31;101150.34;5004917;28;20425;-84
2023/07/22 08:10:21;;;;;;;20.48;11.77;;;;;;;23.10;50.84;101158.94;5033757;28;20033;-84
2023/07/22 08:12:46;;;;;;;20.00;12.73;;;;;;;23.34;50.07;101152.91;5026690;28;20509;-84
2023/07/22 08:15:12;;;;;;;22.65;13.05;;;;;;;22.89;51.88;101150.66;5029484;28;20029;-84
2023/07/22 08:17:37;;;;;;;19.98;12.43;;;;;;;23.09;50.06;101149.03;5034665;28;20473;-84
2023/07/22 08:20:05;;;;;;;17.90;11.98;;;;;;;23.77;48.41;101158.88;5027977;28;20413;-84
2023/07/22 08:22:31;;;;;;;15.13;10.73;;;;;;;24.14;47.14;101148.63;5036915;28;20033;-82
2023/07/22 08:24:56;;;;;;;16.05;11.43;;;;;;;23.72;47.73;101153.41;5017661;28;20030;-84
2023/07/22 08:27:24;;;;;;;15.00;11.18;;;;;;;24.04;47.66;101153.03;5030044;28;20039;-83
2023/07/22 08:29:49;;;;;;;15.77;11.05;;;;;;;25.05;44.28;101153.06;5035780;28;20026;-83
2023/07/22 08:32:17;;;;;;;15.25;11.05;;;;;;;24.50;46.02;101151.19;5015841;28;20045;-82
2023/07/22 08:34:43;;;;;;;16.40;10.88;;;;;;;23.47;47.61;101155.09;5033275;28;20539;-83
2023/07/22 08:37:08;;;;;;;15.52;10.32;;;;;;;22.98;48.56;101149.03;5027200;28;20037;-82
2023/07/22 08:39:34;;;;;;;13.15;10.02;;;;;;;22.18;50.30;101157.59;5024758;28;20030;-81
2023/07/22 08:42:00;;;;;;;12.60;9.27;;;;;;;21.80;50.32;101154.94;5032041;28;20036;-82
2023/07/22 08:44:25;;;;;;;12.57;8.85;;;;;;;21.66;50.14;101149.09;5012951;28;20028;-82
2023/07/22 08:46:50;;;;;;;14.95;10.98;;;;;;;21.47;51.59;101146.75;4983028;28;20036;-81
2023/07/22 08:49:16;;;;;;;13.63;10.13;;;;;;;21.43;52.47;101151.13;5030386;28;20048;-82
2023/07/22 08:51:41;;;;;;;16.20;10.30;;;;;;;21.18;52.74;101146.28;5029542;28;20046;-81
2023/07/22 08:54:07;;;;;;;13.73;10.15;;;;;;;20.93;53.78;101139.50;5014677;28;20397;-81
2023/07/22 08:56:32;;;;;;;15.98;9.80;;;;;;;20.73;53.59;101149.13;5020813;28;20493;-81
2023/07/22 08:59:01;;;;;;;14.60;10.10;;;;;;;20.39;54.90;101149.31;5003597;28;20091;-80
2023/07/22 09:01:26;;;;;;;16.08;10.20;;;;;;;20.00;57.72;101143.91;5025793;28;20398;-81
2023/07/22 09:03:52;;;;;;;16.55;10.07;;;;;;;20.22;57.11;101140.38;4986457;28;20523;-80
2023/07/22 09:06:19;;;;;;;14.85;10.20;;;;;;;19.95;57.13;101150.16;4992309;28;20473;-80
2023/07/22 09:08:45;;;;;;;15.70;10.68;;;;;;;20.20;56.86;101137.91;5034313;28;20076;-80
2023/07/22 09:11:11;;;;;;;17.60;10.32;;;;;;;20.34;56.52;101141.03;5034320;28;20033;-80
2023/07/22 09:13:39;;;;;;;15.90;10.48;;;;;;;20.80;55.40;101135.28;5017251;28;20037;-80
2023/07/22 09:16:06;;;;;;;16.23;10.07;;;;;;;20.67;55.43;101130.19;5006118;28;20029;-80
2023/07/22 09:18:34;;;;;;;16.52;11.00;;;;;;;20.67;56.74;101139.22;5033938;28;20040;-80
2023/07/22 09:21:00;;;;;;;13.02;8.90;;;;;;;21.04;53.00;101146.72;5009177;28;20049;-80
2023/07/22 09:23:33;;;;;;;11.63;7.95;;;;;;;21.11;53.19;101142.94;5030758;28;20033;-80
2023/07/22 09:26:13;;;;;;;14.55;9.05;;;;;;;20.91;53.72;101149.88;5022330;28;20485;-80
2023/07/22 09:28:55;;;;;;;14.27;9.15;;;;;;;20.95;54.62;101147.44;5022649;28;20030;-79
2023/07/22 09:31:21;;;;;;;15.90;9.38;;;;;;;21.21;54.38;101153.97;5031598;28;20026;-80
2023/07/22 09:33:47;;;;;;;13.98;10.13;;;;;;;21.39;54.05;101160.13;5024432;28;20390;-79
2023/07/22 09:36:12;;;;;;;13.85;9.65;;;;;;;21.47;53.60;101151.44;5032721;28;20037;-80
2023/07/22 09:38:37;;;;;;;17.95;10.23;;;;;;;20.87;54.52;101149.56;5033696;28;20029;-79
2023/07/22 09:41:03;;;;;;;14.25;10.18;;;;;;;20.16;56.79;101139.47;5024901;28;20437;-80
2023/07/22 09:43:29;;;;;;;14.48;9.63;;;;;;;20.80;55.12;101148.13;5031077;28;20473;-79
2023/07/22 09:45:54;;;;;;;14.02;9.02;;;;;;;20.99;53.66;101137.63;5027081;28;20043;-80
2023/07/22 09:48:21;;;;;;;13.25;8.65;;;;;;;20.70;53.77;101135.97;5023270;28;20697;-79
2023/07/22 09:50:47;;;;;;;12.95;8.75;;;;;;;20.83;54.39;101139.38;5014862;28;20092;-79
2023/07/22 09:53:15;;;;;;;10.80;7.97;;;;;;;21.19;52.12;101142.44;4995665;28;20025;-80
2023/07/22 09:55:41;;;;;;;10.38;8.25;;;;;;;21.29;53.05;101138.97;5020887;28;20056;-79
2023/07/22 09:58:09;;;;;;;12.32;8.82;;;;;;;21.46;53.54;101127.88;5014614;28;20038;-79
2023/07/22 10:00:35;;;;;;;12.18;8.70;;;;;;;21.15;53.57;101124.91;5031236;28;20057;-79
2023/07/22 10:03:01;;;;;;;11.18;8.15;;;;;;;20.57;56.06;101123.53;5029063;28;20037;-78
2023/07/22 10:05:28;;;;;;;11.57;7.70;;;;;;;20.98;54.73;101128.59;5025479;28;20033;-79
2023/07/22 10:07:58;;;;;;;9.15;7.40;;;;;;;20.59;53.51;101121.34;5033684;28;20079;-79
2023/07/22 10:10:26;;;;;;;12.50;6.97;;;;;;;20.66;53.64;101129.34;5014166;28;20532;-79
2023/07/22 10:12:53;;;;;;;10.77;7.18;;;;;;;20.62;53.07;101120.03;5016195;28;20029;-79
2023/07/22 10:15:18;;;;;;;10.70;6.85;;;;;;;20.98;51.81;101123.13;5007984;28;20091;-79
2023/07/22 10:17:44;;;;;;;11.65;7.18;;;;;;;21.12;51.93;101123.50;5028304;28;20072;-79
2023/07/22 10:20:15;;;;;;;10.88;7.40;;;;;;;20.97;53.06;101132.44;5027769;28;20394;-79
2023/07/22 10:22:46;;;;;;;13.20;8.23;;;;;;;21.13;52.39;101127.09;5032777;28;20057;-79
2023/07/22 10:25:14;;;;;;;14.85;8.10;;;;;;;20.95;52.73;101129.13;5007257;28;20030;-79
2023/07/22 10:27:41;;;;;;;10.57;7.55;;;;;;;20.88;53.56;101125.75;5024469;28;20030;-80
2023/07/22 10:30:07;;;;;;;12.52;8.48;;;;;;;20.71;54.57;101117.66;5013896;28;20067;-79
2023/07/22 10:32:40;;;;;;;11.80;8.70;;;;;;;20.86;54.60;101122.47;5028245;28;20033;-78
2023/07/22 10:35:12;;;;;;;12.68;7.13;;;;;;;21.00;53.75;101131.88;5027020;28;20076;-79
2023/07/22 10:37:45;;;;;;;7.85;6.15;;;;;;;21.16;51.71;101129.31;5031728;28;20052;-79
2023/07/22 10:40:27;;;;;;;6.63;5.43;;;;;;;21.20;50.00;101119.44;4994219;28;20034;-79
2023/07/22 10:42:53;;;;;;;7.43;5.47;;;;;;;21.38;50.16;101126.44;5033509;28;20385;-79
2023/07/22 10:45:29;;;;;;;8.07;6.10;;;;;;;21.52;50.63;101121.34;5031448;28;20029;-79
2023/07/22 10:48:01;;;;;;;;;;;;;;;21.61;49.58;101125.25;5023806;28;21176;-79
2023/07/22 10:50:51;;;;;;;8.90;4.80;;;;;;;21.81;48.74;101127.28;5007751;28;20331;-78
2023/07/22 10:53:23;;;;;;;6.18;4.80;;;;;;;21.63;49.28;101128.56;5020212;28;20109;-79
2023/07/22 10:56:17;;;;;;;8.35;4.80;;;;;;;21.27;50.02;101133.75;5032391;28;20029;-79
2023/07/22 10:58:45;;;;;;;6.13;4.10;;;;;;;20.91;49.26;101128.00;5015391;28;20065;-79
2023/07/22 11:01:28;;;;;;;6.15;4.32;;;;;;;20.88;48.71;101120.28;5026775;28;20036;-78
2023/07/22 11:04:30;;;;;;;7.47;4.47;;;;;;;21.21;49.10;101121.09;5052224;28;20113;-79
2023/07/22 11:06:59;;;;;;;8.30;5.50;;;;;;;21.44;49.53;101119.09;5038508;28;20045;-79
2023/07/22 11:09:33;;;;;;;6.88;4.93;;;;;;;21.39;49.87;101114.41;5015069;28;20030;-79